x

Galveston,tx - 22 Nm East Of Galveston, Tx (42035) Wave Buoy

8:50am - Sat 16th Dec 2017 All times are CST. -6 hours from GMT.

  • Sig Wave height 2.3ft
  • Swell Direction
  • Peak Period 4s
  • Average Period 3s
  • Wind
    18mph, 22mph gusts
  • Sea Temp 61°f
  • Air Temp 56°f
  • Sea Pressure 1023mb
  • Galveston,tx -  22 Nm East Of Galveston, Tx
  • Galveston,tx -  22 Nm East Of Galveston, Tx

More Historic Weather Station data

Upgrade to MSW Pro to gain access to the past 30 days of data for over 8000 Wavebouys and Weather Stations around the globe.

Join

Comparision Forecast

View Surf forecast
   
Sat 12/16 8:50am 2.5ft 4s 3s 18 22 mph 1023mb 61f 56f
7:50am 2.5ft 5s 3s 18 22 mph 1022.8mb 61f 55f
5:50am 1.6ft 5s 3s 13 16 mph 1023.5mb 61f 54f
4:50am 1.6ft 5s 3s 13 16 mph 1022.8mb 61f 54f
3:50am 1.6ft 5s 4s 13 16 mph 1023.2mb 61f 54f
2:50am 1.6ft 5s 4s 9 11 mph 1023.8mb 61f 54f
1:50am 1.6ft 5s 4s 11 13 mph 1024mb 61f 53f
Fri 12/15 11:50pm 1.6ft 5s 4s 9 11 mph 1025.3mb 61f 53f
10:50pm 1.6ft 5s 4s 9 11 mph 1025.6mb 61f 53f
9:50pm 1.6ft 5s 4s 11 13 mph 1025.5mb 61f 53f
8:50pm 1.6ft 5s 4s 11 13 mph 1025.2mb 61f 53f
7:50pm 2ft 4s 4s 9 13 mph 1025mb 61f 53f
5:50pm 2.5ft 4s 4s 11 16 mph 1024mb 60f 53f
4:50pm 2.5ft 5s 4s 13 18 mph 1023.9mb 60f 53f
3:50pm 3ft 5s 4s 16 18 mph 1023.5mb 60f 53f
2:50pm 3.5ft 5s 4s 18 20 mph 1023.6mb 60f 52f
1:50pm 3.5ft 5s 4s 20 25 mph 1023.4mb 60f 52f
12:50pm 3.5ft 5s 4s 20 25 mph 1023.8mb 60f 52f
10:50am 3.5ft 5s 4s 22 27 mph 1025.3mb 60f 52f
9:50am 4ft 4s 4s 22 27 mph 1024.8mb 60f 51f
8:50am 3.5ft 4s 4s 22 27 mph 1023.9mb 60f 51f
7:50am 4ft 4s 4s 22 29 mph 1022.6mb 60f 52f
6:50am 3.5ft 4s 4s 25 29 mph 1021.5mb 60f 52f
5:50am 3.5ft 4s 4s 25 29 mph 1020.5mb 60f 53f
4:50am 3.5ft 4s 4s 25 29 mph 1019.2mb 60f 53f
3:50am 3.5ft 4s 4s 22 27 mph 1019.4mb 60f 55f
2:50am 2.5ft 4s 3s 25 29 mph 1018.3mb 60f 55f
1:50am 2.5ft 3s 3s 22 25 mph 1018.1mb 60f 57f
12:50am 2.5ft 4s 3s 22 25 mph 1018mb 60f 57f
Thu 12/14 11:50pm 2ft 3s 3s 20 22 mph 1017.7mb 60f 58f
10:50pm 1ft 3s 3s 18 22 mph 1017.8mb 60f 58f
9:50pm 0.7ft  -  4s 13 13 mph 1017.8mb 60f 60f
8:50pm 0.3ft  -  4s 7 7 mph 1017.1mb 60f 60f
7:50pm 0.7ft  -  4s 4 7 mph 1016.5mb 60f 61f
6:50pm 0.7ft  -  4s 2 4 mph 1016.3mb 60f 60f
5:50pm 0.3ft  -  4s 2 2 mph 1015.4mb 60f 60f
4:50pm 0.7ft  -   -  2 2 mph 1015mb 61f 61f
3:50pm 0.7ft  -  4s 2 2 mph 1014.6mb 61f 61f
2:50pm 0.7ft  -  4s 4 4 mph 1014.2mb 61f 61f
1:50pm 0.7ft  -  3s 4 4 mph 1014.5mb 61f 61f
12:50pm 0.7ft  -  3s 2 4 mph 1015.1mb 61f 61f
11:50am 0.7ft  -  3s 4 4 mph 1015.4mb 61f 61f
10:50am 0.7ft  -  3s 2 2 mph 1016.2mb 60f 61f
9:50am 0.7ft  -  3s 2 2 mph 1016.3mb 60f 61f
8:50am 0.7ft  -  3s 4 4 mph 1016mb 60f 60f
7:50am 0.7ft  -  3s  -  0 mph 1015.7mb 60f 60f
6:50am 0.7ft  -   -   -  0 mph 1015.3mb 60f 59f
5:50am 0.7ft  -  3s  -  2 mph 1015mb 60f 59f
4:50am 0.7ft  -  3s 2 2 mph 1014.3mb 60f 59f
3:50am 0.7ft  -  3s 4 7 mph 1014.8mb 60f 60f
2:50am 0.7ft  -  3s 7 7 mph 1014.5mb 60f 60f
1:50am 1ft 3s 3s 9 11 mph 1014.5mb 60f 60f
12:50am 1ft 3s 3s 11 11 mph 1014.7mb 60f 60f
Wed 12/13 11:50pm 1ft 3s 3s 9 11 mph 1015.3mb 60f 59f
10:50pm 1ft 3s 3s 7 9 mph 1015.8mb 60f 59f
9:50pm 1ft 3s 3s 9 11 mph 1015.9mb 60f 59f
8:50pm 1ft 3s 3s 9 11 mph 1016.2mb 60f 59f
7:50pm 1ft 3s 3s 9 11 mph 1016.4mb 60f 59f
6:50pm 1ft 3s 3s 13 16 mph 1016.6mb 60f 59f
5:50pm 1ft 3s 3s 11 13 mph 1017mb 60f 58f
4:50pm 1ft 3s 3s 9 13 mph 1017.3mb 60f 58f
3:50pm 0.7ft  -  3s 11 13 mph 1017.9mb 60f 58f
2:50pm 0.7ft  -  3s 9 11 mph 1018.1mb 60f 58f
1:50pm 0.7ft  -  3s 9 11 mph 1018.8mb 60f 58f
12:50pm 0.7ft  -  4s 9 11 mph 1019.9mb 60f 58f
11:50am 0.7ft  -  3s 7 9 mph 1021mb 60f 57f
10:50am 0.7ft  -  3s 7 9 mph 1022.4mb 60f 57f
9:50am 0.7ft  -  3s 7 9 mph 1022.9mb 60f 56f
8:50am 0.7ft  -  3s 4 7 mph 1022.7mb 59f 56f
7:50am 0.7ft  -  3s 4 7 mph 1022.2mb 60f 54f
6:50am 0.7ft  -  3s 4 4 mph 1022.4mb 60f 54f
5:50am 1ft 3s 3s 7 11 mph 1021.9mb 60f 54f
4:50am 1ft 3s 3s 9 11 mph 1021.9mb 60f 54f
3:50am 1.3ft 3s 3s 11 13 mph 1021.7mb 60f 55f
2:50am 1.6ft 3s 3s 11 16 mph 1022.3mb 60f 54f
1:50am 1.6ft 3s 3s 13 16 mph 1022.9mb 60f 54f
12:50am 2ft 4s 3s 16 18 mph 1023mb 60f 55f
Tue 12/12 11:50pm 2ft 4s 3s 18 20 mph 1023.2mb 61f 56f
10:50pm 2ft 3s 3s 18 20 mph 1023.8mb 61f 57f
9:50pm 2ft 4s 3s 16 18 mph 1023.9mb 61f 58f
8:50pm 2.5ft 4s 3s 16 18 mph 1023.8mb 61f 58f
7:50pm 2.5ft 4s 3s 18 20 mph 1023.8mb 61f 58f
6:50pm 2.5ft 4s 3s 18 20 mph 1023.4mb 61f 59f
5:50pm 2.5ft 3s 3s 18 20 mph 1022.9mb 61f 60f